sensor_id;sensor_type;location;lat;lon;timestamp;P1;durP1;ratioP1;P2;durP2;ratioP2
61702;SDS011;47622;47.726;3.298;2024-02-23T00:01:47;12.48;;;1.92;;
61702;SDS011;47622;47.726;3.298;2024-02-23T00:04:13;10.52;;;1.83;;
61702;SDS011;47622;47.726;3.298;2024-02-23T00:06:39;4.75;;;1.60;;
61702;SDS011;47622;47.726;3.298;2024-02-23T00:09:04;3.03;;;1.77;;
61702;SDS011;47622;47.726;3.298;2024-02-23T00:11:30;5.18;;;1.90;;
61702;SDS011;47622;47.726;3.298;2024-02-23T00:13:58;13.10;;;3.25;;
61702;SDS011;47622;47.726;3.298;2024-02-23T00:16:24;9.27;;;1.75;;
61702;SDS011;47622;47.726;3.298;2024-02-23T00:18:51;3.70;;;1.65;;
61702;SDS011;47622;47.726;3.298;2024-02-23T00:21:16;7.80;;;2.45;;
61702;SDS011;47622;47.726;3.298;2024-02-23T00:23:42;5.15;;;1.98;;
61702;SDS011;47622;47.726;3.298;2024-02-23T00:26:08;7.18;;;1.83;;
61702;SDS011;47622;47.726;3.298;2024-02-23T00:28:33;4.05;;;1.50;;
61702;SDS011;47622;47.726;3.298;2024-02-23T00:30:59;9.10;;;1.70;;
61702;SDS011;47622;47.726;3.298;2024-02-23T00:33:25;8.85;;;2.15;;
61702;SDS011;47622;47.726;3.298;2024-02-23T00:35:50;5.13;;;1.60;;
61702;SDS011;47622;47.726;3.298;2024-02-23T00:38:16;7.05;;;1.83;;
61702;SDS011;47622;47.726;3.298;2024-02-23T00:40:41;6.93;;;2.03;;
61702;SDS011;47622;47.726;3.298;2024-02-23T00:43:08;8.57;;;2.08;;
61702;SDS011;47622;47.726;3.298;2024-02-23T00:45:33;5.43;;;1.63;;
61702;SDS011;47622;47.726;3.298;2024-02-23T00:47:59;10.73;;;1.90;;
61702;SDS011;47622;47.726;3.298;2024-02-23T00:50:25;3.97;;;1.65;;
61702;SDS011;47622;47.726;3.298;2024-02-23T00:52:54;4.95;;;1.65;;
61702;SDS011;47622;47.726;3.298;2024-02-23T00:55:19;6.80;;;1.65;;
61702;SDS011;47622;47.726;3.298;2024-02-23T00:57:45;8.40;;;1.75;;
61702;SDS011;47622;47.726;3.298;2024-02-23T01:00:11;5.60;;;1.73;;
61702;SDS011;47622;47.726;3.298;2024-02-23T01:02:37;13.32;;;2.80;;
61702;SDS011;47622;47.726;3.298;2024-02-23T01:05:04;9.25;;;1.77;;
61702;SDS011;47622;47.726;3.298;2024-02-23T01:07:30;8.70;;;1.80;;
61702;SDS011;47622;47.726;3.298;2024-02-23T01:09:55;7.20;;;1.70;;
61702;SDS011;47622;47.726;3.298;2024-02-23T01:12:21;7.20;;;2.35;;
61702;SDS011;47622;47.726;3.298;2024-02-23T01:14:47;9.65;;;2.10;;
61702;SDS011;47622;47.726;3.298;2024-02-23T01:17:14;6.35;;;1.45;;
61702;SDS011;47622;47.726;3.298;2024-02-23T01:19:43;8.13;;;3.70;;
61702;SDS011;47622;47.726;3.298;2024-02-23T01:22:09;11.88;;;2.03;;
61702;SDS011;47622;47.726;3.298;2024-02-23T01:24:35;5.65;;;1.50;;
61702;SDS011;47622;47.726;3.298;2024-02-23T01:27:01;10.10;;;1.92;;
61702;SDS011;47622;47.726;3.298;2024-02-23T01:29:27;10.15;;;2.67;;
61702;SDS011;47622;47.726;3.298;2024-02-23T01:31:52;6.97;;;1.80;;
61702;SDS011;47622;47.726;3.298;2024-02-23T01:34:20;5.60;;;1.83;;
61702;SDS011;47622;47.726;3.298;2024-02-23T01:36:46;10.48;;;2.00;;
61702;SDS011;47622;47.726;3.298;2024-02-23T01:39:12;9.95;;;1.83;;
61702;SDS011;47622;47.726;3.298;2024-02-23T01:41:37;9.73;;;1.88;;
61702;SDS011;47622;47.726;3.298;2024-02-23T01:44:03;12.00;;;2.15;;
61702;SDS011;47622;47.726;3.298;2024-02-23T01:46:29;10.77;;;2.25;;
61702;SDS011;47622;47.726;3.298;2024-02-23T01:48:54;7.55;;;2.13;;
61702;SDS011;47622;47.726;3.298;2024-02-23T01:51:20;7.72;;;2.03;;
61702;SDS011;47622;47.726;3.298;2024-02-23T01:53:46;9.50;;;2.17;;
61702;SDS011;47622;47.726;3.298;2024-02-23T01:56:12;18.20;;;3.20;;
61702;SDS011;47622;47.726;3.298;2024-02-23T01:58:43;7.38;;;1.95;;
61702;SDS011;47622;47.726;3.298;2024-02-23T02:01:09;11.60;;;2.33;;
61702;SDS011;47622;47.726;3.298;2024-02-23T02:03:37;14.48;;;2.15;;
61702;SDS011;47622;47.726;3.298;2024-02-23T02:06:04;6.35;;;2.10;;
61702;SDS011;47622;47.726;3.298;2024-02-23T02:08:32;6.50;;;1.80;;
61702;SDS011;47622;47.726;3.298;2024-02-23T02:10:58;13.93;;;2.60;;
61702;SDS011;47622;47.726;3.298;2024-02-23T02:13:24;7.88;;;1.90;;
61702;SDS011;47622;47.726;3.298;2024-02-23T02:15:50;8.95;;;2.20;;
61702;SDS011;47622;47.726;3.298;2024-02-23T02:18:15;11.27;;;1.98;;
61702;SDS011;47622;47.726;3.298;2024-02-23T02:20:43;9.10;;;2.03;;
61702;SDS011;47622;47.726;3.298;2024-02-23T02:23:18;8.88;;;2.05;;
61702;SDS011;47622;47.726;3.298;2024-02-23T02:25:43;9.43;;;1.60;;
61702;SDS011;47622;47.726;3.298;2024-02-23T02:28:09;10.73;;;2.58;;
61702;SDS011;47622;47.726;3.298;2024-02-23T02:30:34;9.45;;;1.90;;
61702;SDS011;47622;47.726;3.298;2024-02-23T02:33:00;10.52;;;2.22;;
61702;SDS011;47622;47.726;3.298;2024-02-23T02:35:26;12.00;;;2.20;;
61702;SDS011;47622;47.726;3.298;2024-02-23T02:37:52;6.90;;;2.40;;
61702;SDS011;47622;47.726;3.298;2024-02-23T02:40:17;7.45;;;1.95;;
61702;SDS011;47622;47.726;3.298;2024-02-23T02:42:43;7.10;;;1.80;;
61702;SDS011;47622;47.726;3.298;2024-02-23T02:45:09;13.10;;;2.47;;
61702;SDS011;47622;47.726;3.298;2024-02-23T02:47:35;12.57;;;2.28;;
61702;SDS011;47622;47.726;3.298;2024-02-23T02:50:01;14.00;;;2.33;;
61702;SDS011;47622;47.726;3.298;2024-02-23T02:52:27;13.57;;;2.53;;
61702;SDS011;47622;47.726;3.298;2024-02-23T02:54:53;9.98;;;1.90;;
61702;SDS011;47622;47.726;3.298;2024-02-23T02:57:19;12.07;;;2.40;;
61702;SDS011;47622;47.726;3.298;2024-02-23T02:59:45;17.77;;;2.53;;
61702;SDS011;47622;47.726;3.298;2024-02-23T03:02:11;6.18;;;1.70;;
61702;SDS011;47622;47.726;3.298;2024-02-23T03:04:37;10.90;;;2.10;;
61702;SDS011;47622;47.726;3.298;2024-02-23T03:07:02;9.60;;;2.25;;
61702;SDS011;47622;47.726;3.298;2024-02-23T03:09:28;6.40;;;1.65;;
61702;SDS011;47622;47.726;3.298;2024-02-23T03:11:53;9.35;;;2.10;;
61702;SDS011;47622;47.726;3.298;2024-02-23T03:14:19;13.52;;;2.25;;
61702;SDS011;47622;47.726;3.298;2024-02-23T03:16:45;10.98;;;2.70;;
61702;SDS011;47622;47.726;3.298;2024-02-23T03:19:12;13.38;;;2.30;;
61702;SDS011;47622;47.726;3.298;2024-02-23T03:21:38;12.85;;;2.53;;
61702;SDS011;47622;47.726;3.298;2024-02-23T03:24:04;12.02;;;2.00;;
61702;SDS011;47622;47.726;3.298;2024-02-23T03:26:29;9.93;;;2.03;;
61702;SDS011;47622;47.726;3.298;2024-02-23T03:28:55;10.55;;;1.88;;
61702;SDS011;47622;47.726;3.298;2024-02-23T03:31:20;11.68;;;3.38;;
61702;SDS011;47622;47.726;3.298;2024-02-23T03:33:46;9.80;;;2.30;;
61702;SDS011;47622;47.726;3.298;2024-02-23T03:36:11;10.45;;;1.80;;
61702;SDS011;47622;47.726;3.298;2024-02-23T03:38:37;10.30;;;2.00;;
61702;SDS011;47622;47.726;3.298;2024-02-23T03:41:03;17.38;;;2.00;;
61702;SDS011;47622;47.726;3.298;2024-02-23T03:43:29;12.68;;;2.42;;
61702;SDS011;47622;47.726;3.298;2024-02-23T03:45:54;6.07;;;2.42;;
61702;SDS011;47622;47.726;3.298;2024-02-23T03:48:20;8.68;;;2.30;;
61702;SDS011;47622;47.726;3.298;2024-02-23T03:50:46;7.32;;;1.80;;
61702;SDS011;47622;47.726;3.298;2024-02-23T03:53:11;9.75;;;1.90;;
61702;SDS011;47622;47.726;3.298;2024-02-23T03:55:37;6.13;;;2.47;;
61702;SDS011;47622;47.726;3.298;2024-02-23T03:58:02;9.88;;;2.10;;
61702;SDS011;47622;47.726;3.298;2024-02-23T04:00:28;6.22;;;1.67;;
61702;SDS011;47622;47.726;3.298;2024-02-23T04:02:53;5.45;;;1.95;;
61702;SDS011;47622;47.726;3.298;2024-02-23T04:05:19;10.70;;;2.08;;
61702;SDS011;47622;47.726;3.298;2024-02-23T04:07:45;10.00;;;2.00;;
61702;SDS011;47622;47.726;3.298;2024-02-23T04:10:10;15.10;;;2.20;;
61702;SDS011;47622;47.726;3.298;2024-02-23T04:12:41;7.28;;;1.83;;
61702;SDS011;47622;47.726;3.298;2024-02-23T04:15:08;9.48;;;2.67;;
61702;SDS011;47622;47.726;3.298;2024-02-23T04:17:34;9.55;;;2.15;;
61702;SDS011;47622;47.726;3.298;2024-02-23T04:20:00;14.00;;;2.20;;
61702;SDS011;47622;47.726;3.298;2024-02-23T04:22:31;10.27;;;2.63;;
61702;SDS011;47622;47.726;3.298;2024-02-23T04:24:57;10.93;;;2.67;;
61702;SDS011;47622;47.726;3.298;2024-02-23T04:27:22;12.50;;;2.10;;
61702;SDS011;47622;47.726;3.298;2024-02-23T04:29:48;10.63;;;2.60;;
61702;SDS011;47622;47.726;3.298;2024-02-23T04:32:13;4.97;;;1.90;;
61702;SDS011;47622;47.726;3.298;2024-02-23T04:34:39;4.43;;;1.77;;
61702;SDS011;47622;47.726;3.298;2024-02-23T04:37:06;12.07;;;2.72;;
61702;SDS011;47622;47.726;3.298;2024-02-23T04:39:32;8.85;;;1.63;;
61702;SDS011;47622;47.726;3.298;2024-02-23T04:41:57;7.47;;;1.70;;
61702;SDS011;47622;47.726;3.298;2024-02-23T04:44:23;7.90;;;1.90;;
61702;SDS011;47622;47.726;3.298;2024-02-23T04:46:49;12.60;;;2.20;;
61702;SDS011;47622;47.726;3.298;2024-02-23T04:49:15;11.23;;;2.55;;
61702;SDS011;47622;47.726;3.298;2024-02-23T04:51:40;7.95;;;2.17;;
61702;SDS011;47622;47.726;3.298;2024-02-23T04:54:06;11.15;;;2.03;;
61702;SDS011;47622;47.726;3.298;2024-02-23T04:56:32;10.82;;;2.08;;
61702;SDS011;47622;47.726;3.298;2024-02-23T04:58:58;6.85;;;1.80;;
61702;SDS011;47622;47.726;3.298;2024-02-23T05:01:24;7.38;;;2.40;;
61702;SDS011;47622;47.726;3.298;2024-02-23T05:03:50;8.05;;;1.58;;
61702;SDS011;47622;47.726;3.298;2024-02-23T05:06:15;7.10;;;2.05;;
61702;SDS011;47622;47.726;3.298;2024-02-23T05:08:41;11.98;;;1.90;;
61702;SDS011;47622;47.726;3.298;2024-02-23T05:11:06;5.50;;;1.27;;
61702;SDS011;47622;47.726;3.298;2024-02-23T05:13:32;6.07;;;1.67;;
61702;SDS011;47622;47.726;3.298;2024-02-23T05:15:57;6.43;;;1.80;;
61702;SDS011;47622;47.726;3.298;2024-02-23T05:18:23;8.25;;;1.70;;
61702;SDS011;47622;47.726;3.298;2024-02-23T05:20:49;8.00;;;1.70;;
61702;SDS011;47622;47.726;3.298;2024-02-23T05:23:14;10.77;;;1.90;;
61702;SDS011;47622;47.726;3.298;2024-02-23T05:25:43;7.85;;;1.92;;
61702;SDS011;47622;47.726;3.298;2024-02-23T05:28:08;7.03;;;1.83;;
61702;SDS011;47622;47.726;3.298;2024-02-23T05:30:34;6.55;;;1.30;;
61702;SDS011;47622;47.726;3.298;2024-02-23T05:32:59;5.32;;;1.90;;
61702;SDS011;47622;47.726;3.298;2024-02-23T05:35:28;7.53;;;1.70;;
61702;SDS011;47622;47.726;3.298;2024-02-23T05:37:54;8.13;;;1.85;;
61702;SDS011;47622;47.726;3.298;2024-02-23T05:40:20;6.80;;;1.55;;
61702;SDS011;47622;47.726;3.298;2024-02-23T05:42:46;2.60;;;1.23;;
61702;SDS011;47622;47.726;3.298;2024-02-23T05:45:12;9.57;;;1.90;;
61702;SDS011;47622;47.726;3.298;2024-02-23T05:47:37;7.13;;;1.48;;
61702;SDS011;47622;47.726;3.298;2024-02-23T05:50:04;4.18;;;1.38;;
61702;SDS011;47622;47.726;3.298;2024-02-23T05:52:31;8.70;;;1.70;;
61702;SDS011;47622;47.726;3.298;2024-02-23T05:54:57;4.75;;;1.80;;
61702;SDS011;47622;47.726;3.298;2024-02-23T05:57:25;9.85;;;1.70;;
61702;SDS011;47622;47.726;3.298;2024-02-23T05:59:52;8.88;;;1.88;;
61702;SDS011;47622;47.726;3.298;2024-02-23T06:02:18;6.28;;;1.90;;
61702;SDS011;47622;47.726;3.298;2024-02-23T06:04:43;7.38;;;1.65;;
61702;SDS011;47622;47.726;3.298;2024-02-23T06:07:10;3.85;;;1.50;;
61702;SDS011;47622;47.726;3.298;2024-02-23T06:09:35;5.07;;;1.83;;
61702;SDS011;47622;47.726;3.298;2024-02-23T06:12:01;3.67;;;1.20;;
61702;SDS011;47622;47.726;3.298;2024-02-23T06:14:26;3.47;;;1.40;;
61702;SDS011;47622;47.726;3.298;2024-02-23T06:16:52;7.95;;;1.50;;
61702;SDS011;47622;47.726;3.298;2024-02-23T06:19:17;7.70;;;1.58;;
61702;SDS011;47622;47.726;3.298;2024-02-23T06:21:47;3.90;;;1.60;;
61702;SDS011;47622;47.726;3.298;2024-02-23T06:24:14;5.32;;;1.50;;
61702;SDS011;47622;47.726;3.298;2024-02-23T06:26:39;4.15;;;1.48;;
61702;SDS011;47622;47.726;3.298;2024-02-23T06:29:05;4.30;;;1.58;;
61702;SDS011;47622;47.726;3.298;2024-02-23T06:31:31;5.90;;;1.30;;
61702;SDS011;47622;47.726;3.298;2024-02-23T06:33:59;6.55;;;1.38;;
61702;SDS011;47622;47.726;3.298;2024-02-23T06:36:25;7.95;;;1.77;;
61702;SDS011;47622;47.726;3.298;2024-02-23T06:38:51;12.18;;;1.70;;
61702;SDS011;47622;47.726;3.298;2024-02-23T06:41:17;6.32;;;1.60;;
61702;SDS011;47622;47.726;3.298;2024-02-23T06:43:42;3.58;;;1.35;;
61702;SDS011;47622;47.726;3.298;2024-02-23T06:46:08;6.15;;;1.27;;
61702;SDS011;47622;47.726;3.298;2024-02-23T06:48:35;4.53;;;1.60;;
61702;SDS011;47622;47.726;3.298;2024-02-23T06:51:02;6.65;;;1.77;;
61702;SDS011;47622;47.726;3.298;2024-02-23T06:53:29;4.15;;;1.50;;
61702;SDS011;47622;47.726;3.298;2024-02-23T06:55:54;5.40;;;1.48;;
61702;SDS011;47622;47.726;3.298;2024-02-23T06:58:20;5.53;;;1.38;;
61702;SDS011;47622;47.726;3.298;2024-02-23T07:00:46;2.22;;;1.30;;
61702;SDS011;47622;47.726;3.298;2024-02-23T07:03:12;2.60;;;1.40;;
61702;SDS011;47622;47.726;3.298;2024-02-23T07:05:39;5.13;;;1.52;;
61702;SDS011;47622;47.726;3.298;2024-02-23T07:08:07;4.50;;;1.30;;
61702;SDS011;47622;47.726;3.298;2024-02-23T07:10:33;4.45;;;2.20;;
61702;SDS011;47622;47.726;3.298;2024-02-23T07:12:58;10.20;;;1.60;;
61702;SDS011;47622;47.726;3.298;2024-02-23T07:15:24;4.05;;;1.40;;
61702;SDS011;47622;47.726;3.298;2024-02-23T07:17:52;5.20;;;1.38;;
61702;SDS011;47622;47.726;3.298;2024-02-23T07:20:18;3.05;;;1.27;;
61702;SDS011;47622;47.726;3.298;2024-02-23T07:22:46;3.20;;;1.67;;
61702;SDS011;47622;47.726;3.298;2024-02-23T07:25:21;4.05;;;1.67;;
61702;SDS011;47622;47.726;3.298;2024-02-23T07:27:46;5.32;;;1.27;;
61702;SDS011;47622;47.726;3.298;2024-02-23T07:30:15;6.00;;;1.60;;
61702;SDS011;47622;47.726;3.298;2024-02-23T07:32:42;2.03;;;1.40;;
61702;SDS011;47622;47.726;3.298;2024-02-23T07:35:08;8.18;;;1.40;;
61702;SDS011;47622;47.726;3.298;2024-02-23T07:37:34;7.47;;;2.03;;
61702;SDS011;47622;47.726;3.298;2024-02-23T07:40:01;2.42;;;1.50;;
61702;SDS011;47622;47.726;3.298;2024-02-23T07:42:28;3.67;;;1.40;;
61702;SDS011;47622;47.726;3.298;2024-02-23T07:44:54;3.47;;;1.35;;
61702;SDS011;47622;47.726;3.298;2024-02-23T07:47:19;3.10;;;1.08;;
61702;SDS011;47622;47.726;3.298;2024-02-23T07:49:45;6.38;;;1.45;;
61702;SDS011;47622;47.726;3.298;2024-02-23T07:52:10;1.35;;;1.10;;
61702;SDS011;47622;47.726;3.298;2024-02-23T07:54:37;2.20;;;1.10;;
61702;SDS011;47622;47.726;3.298;2024-02-23T07:57:02;6.28;;;1.63;;
61702;SDS011;47622;47.726;3.298;2024-02-23T07:59:30;3.33;;;1.30;;
61702;SDS011;47622;47.726;3.298;2024-02-23T08:01:56;3.38;;;1.33;;
61702;SDS011;47622;47.726;3.298;2024-02-23T08:04:22;3.83;;;1.00;;
61702;SDS011;47622;47.726;3.298;2024-02-23T08:06:48;2.42;;;1.33;;
61702;SDS011;47622;47.726;3.298;2024-02-23T08:09:14;5.45;;;1.60;;
61702;SDS011;47622;47.726;3.298;2024-02-23T08:11:39;6.03;;;1.45;;
61702;SDS011;47622;47.726;3.298;2024-02-23T08:14:05;1.73;;;1.20;;
61702;SDS011;47622;47.726;3.298;2024-02-23T08:16:30;2.15;;;1.10;;
61702;SDS011;47622;47.726;3.298;2024-02-23T08:18:56;3.97;;;1.10;;
61702;SDS011;47622;47.726;3.298;2024-02-23T08:21:21;5.53;;;1.33;;
61702;SDS011;47622;47.726;3.298;2024-02-23T08:23:47;5.15;;;1.55;;
61702;SDS011;47622;47.726;3.298;2024-02-23T08:26:12;1.85;;;1.30;;
61702;SDS011;47622;47.726;3.298;2024-02-23T08:28:38;4.60;;;1.40;;
61702;SDS011;47622;47.726;3.298;2024-02-23T08:31:04;3.63;;;1.23;;
61702;SDS011;47622;47.726;3.298;2024-02-23T08:33:30;6.90;;;1.73;;
61702;SDS011;47622;47.726;3.298;2024-02-23T08:35:55;1.88;;;1.20;;
61702;SDS011;47622;47.726;3.298;2024-02-23T08:38:21;3.88;;;1.25;;
61702;SDS011;47622;47.726;3.298;2024-02-23T08:40:46;4.15;;;1.10;;
61702;SDS011;47622;47.726;3.298;2024-02-23T08:43:13;3.30;;;1.20;;
61702;SDS011;47622;47.726;3.298;2024-02-23T08:45:38;1.35;;;0.77;;
61702;SDS011;47622;47.726;3.298;2024-02-23T08:48:04;2.60;;;1.02;;
61702;SDS011;47622;47.726;3.298;2024-02-23T08:50:30;2.90;;;0.90;;
61702;SDS011;47622;47.726;3.298;2024-02-23T08:52:55;2.40;;;0.80;;
61702;SDS011;47622;47.726;3.298;2024-02-23T09:02:38;3.13;;;0.85;;
61702;SDS011;47622;47.726;3.298;2024-02-23T09:05:04;1.83;;;0.98;;
61702;SDS011;47622;47.726;3.298;2024-02-23T09:07:30;4.18;;;1.00;;
61702;SDS011;47622;47.726;3.298;2024-02-23T09:09:55;4.35;;;1.25;;
61702;SDS011;47622;47.726;3.298;2024-02-23T09:12:22;2.97;;;0.98;;
61702;SDS011;47622;47.726;3.298;2024-02-23T09:14:47;2.67;;;1.00;;
61702;SDS011;47622;47.726;3.298;2024-02-23T09:17:13;4.55;;;1.30;;
61702;SDS011;47622;47.726;3.298;2024-02-23T09:19:38;4.15;;;1.15;;
61702;SDS011;47622;47.726;3.298;2024-02-23T09:22:04;5.40;;;1.20;;
61702;SDS011;47622;47.726;3.298;2024-02-23T09:24:30;2.97;;;1.08;;
61702;SDS011;47622;47.726;3.298;2024-02-23T09:26:55;1.58;;;0.70;;
61702;SDS011;47622;47.726;3.298;2024-02-23T09:29:21;1.40;;;0.90;;
61702;SDS011;47622;47.726;3.298;2024-02-23T09:31:47;2.90;;;1.15;;
61702;SDS011;47622;47.726;3.298;2024-02-23T09:34:13;4.70;;;0.93;;
61702;SDS011;47622;47.726;3.298;2024-02-23T09:36:38;2.45;;;1.00;;
61702;SDS011;47622;47.726;3.298;2024-02-23T09:39:04;5.63;;;1.48;;
61702;SDS011;47622;47.726;3.298;2024-02-23T09:41:30;2.25;;;1.10;;
61702;SDS011;47622;47.726;3.298;2024-02-23T09:43:57;2.05;;;1.10;;
61702;SDS011;47622;47.726;3.298;2024-02-23T09:46:23;3.17;;;1.10;;
61702;SDS011;47622;47.726;3.298;2024-02-23T09:48:51;5.65;;;1.40;;
61702;SDS011;47622;47.726;3.298;2024-02-23T09:51:17;4.20;;;1.10;;
61702;SDS011;47622;47.726;3.298;2024-02-23T09:53:43;3.83;;;1.38;;
61702;SDS011;47622;47.726;3.298;2024-02-23T09:56:09;3.58;;;1.08;;
61702;SDS011;47622;47.726;3.298;2024-02-23T09:58:35;3.38;;;1.10;;
61702;SDS011;47622;47.726;3.298;2024-02-23T10:01:02;3.65;;;1.10;;
61702;SDS011;47622;47.726;3.298;2024-02-23T10:03:29;3.00;;;1.10;;
61702;SDS011;47622;47.726;3.298;2024-02-23T10:05:58;6.30;;;1.30;;
61702;SDS011;47622;47.726;3.298;2024-02-23T10:08:26;3.25;;;1.10;;
61702;SDS011;47622;47.726;3.298;2024-02-23T10:10:52;3.60;;;1.17;;
61702;SDS011;47622;47.726;3.298;2024-02-23T10:13:24;6.47;;;1.20;;
61702;SDS011;47622;47.726;3.298;2024-02-23T10:15:53;4.25;;;1.27;;
61702;SDS011;47622;47.726;3.298;2024-02-23T10:18:19;3.47;;;1.10;;
61702;SDS011;47622;47.726;3.298;2024-02-23T10:20:45;2.55;;;0.90;;
61702;SDS011;47622;47.726;3.298;2024-02-23T10:23:11;7.35;;;1.30;;
61702;SDS011;47622;47.726;3.298;2024-02-23T10:25:38;3.55;;;1.10;;
61702;SDS011;47622;47.726;3.298;2024-02-23T10:28:04;2.90;;;1.02;;
61702;SDS011;47622;47.726;3.298;2024-02-23T10:30:31;2.90;;;1.13;;
61702;SDS011;47622;47.726;3.298;2024-02-23T10:32:57;6.65;;;1.15;;
61702;SDS011;47622;47.726;3.298;2024-02-23T10:35:23;1.33;;;0.90;;
61702;SDS011;47622;47.726;3.298;2024-02-23T10:37:50;1.27;;;1.00;;
61702;SDS011;47622;47.726;3.298;2024-02-23T10:40:17;1.58;;;1.10;;
61702;SDS011;47622;47.726;3.298;2024-02-23T10:42:45;2.42;;;0.98;;
61702;SDS011;47622;47.726;3.298;2024-02-23T10:45:19;2.28;;;1.00;;
61702;SDS011;47622;47.726;3.298;2024-02-23T10:47:50;4.50;;;1.58;;
61702;SDS011;47622;47.726;3.298;2024-02-23T10:50:17;2.17;;;0.88;;
61702;SDS011;47622;47.726;3.298;2024-02-23T10:52:44;1.40;;;0.88;;
61702;SDS011;47622;47.726;3.298;2024-02-23T10:55:10;1.92;;;0.90;;
61702;SDS011;47622;47.726;3.298;2024-02-23T10:57:37;2.58;;;1.33;;
61702;SDS011;47622;47.726;3.298;2024-02-23T11:00:07;4.82;;;1.17;;
61702;SDS011;47622;47.726;3.298;2024-02-23T11:02:46;9.75;;;1.20;;
61702;SDS011;47622;47.726;3.298;2024-02-23T11:05:16;2.03;;;0.93;;
61702;SDS011;47622;47.726;3.298;2024-02-23T11:07:46;2.85;;;1.10;;
61702;SDS011;47622;47.726;3.298;2024-02-23T11:10:16;2.40;;;0.90;;
61702;SDS011;47622;47.726;3.298;2024-02-23T11:12:42;3.25;;;1.02;;
61702;SDS011;47622;47.726;3.298;2024-02-23T11:15:08;5.85;;;1.20;;
61702;SDS011;47622;47.726;3.298;2024-02-23T11:17:35;2.88;;;0.82;;
61702;SDS011;47622;47.726;3.298;2024-02-23T11:20:05;2.03;;;0.90;;
61702;SDS011;47622;47.726;3.298;2024-02-23T11:22:32;4.15;;;1.52;;
61702;SDS011;47622;47.726;3.298;2024-02-23T11:25:03;3.13;;;1.00;;
61702;SDS011;47622;47.726;3.298;2024-02-23T11:27:40;1.92;;;0.82;;
61702;SDS011;47622;47.726;3.298;2024-02-23T11:30:09;3.17;;;1.20;;
61702;SDS011;47622;47.726;3.298;2024-02-23T11:32:43;4.45;;;1.10;;
61702;SDS011;47622;47.726;3.298;2024-02-23T11:35:11;3.90;;;1.00;;
61702;SDS011;47622;47.726;3.298;2024-02-23T11:38:10;2.30;;;1.00;;
61702;SDS011;47622;47.726;3.298;2024-02-23T11:40:31;1.85;;;1.02;;
61702;SDS011;47622;47.726;3.298;2024-02-23T11:42:57;4.38;;;1.35;;
61702;SDS011;47622;47.726;3.298;2024-02-23T11:45:30;3.55;;;0.82;;
61702;SDS011;47622;47.726;3.298;2024-02-23T11:47:56;4.00;;;0.98;;
61702;SDS011;47622;47.726;3.298;2024-02-23T11:50:21;1.20;;;0.80;;
61702;SDS011;47622;47.726;3.298;2024-02-23T11:52:47;2.97;;;1.20;;
61702;SDS011;47622;47.726;3.298;2024-02-23T11:55:17;4.97;;;1.13;;
61702;SDS011;47622;47.726;3.298;2024-02-23T11:57:47;2.90;;;1.02;;
61702;SDS011;47622;47.726;3.298;2024-02-23T12:00:13;2.92;;;1.05;;
61702;SDS011;47622;47.726;3.298;2024-02-23T12:02:40;2.35;;;0.93;;
61702;SDS011;47622;47.726;3.298;2024-02-23T12:05:05;3.28;;;1.02;;
61702;SDS011;47622;47.726;3.298;2024-02-23T12:07:32;2.55;;;0.90;;
61702;SDS011;47622;47.726;3.298;2024-02-23T12:09:59;3.42;;;1.20;;
61702;SDS011;47622;47.726;3.298;2024-02-23T12:12:25;6.78;;;1.23;;
61702;SDS011;47622;47.726;3.298;2024-02-23T12:14:51;3.45;;;1.40;;
61702;SDS011;47622;47.726;3.298;2024-02-23T12:17:17;8.00;;;1.10;;
61702;SDS011;47622;47.726;3.298;2024-02-23T12:19:42;3.55;;;1.10;;
61702;SDS011;47622;47.726;3.298;2024-02-23T12:22:08;3.70;;;1.02;;
61702;SDS011;47622;47.726;3.298;2024-02-23T12:24:35;3.70;;;1.45;;
61702;SDS011;47622;47.726;3.298;2024-02-23T12:27:01;4.32;;;1.20;;
61702;SDS011;47622;47.726;3.298;2024-02-23T12:29:26;2.42;;;0.90;;
61702;SDS011;47622;47.726;3.298;2024-02-23T12:32:06;3.17;;;0.95;;
61702;SDS011;47622;47.726;3.298;2024-02-23T12:34:32;2.90;;;1.08;;
61702;SDS011;47622;47.726;3.298;2024-02-23T12:36:58;4.22;;;1.02;;
61702;SDS011;47622;47.726;3.298;2024-02-23T12:39:24;2.08;;;1.00;;
61702;SDS011;47622;47.726;3.298;2024-02-23T12:41:50;2.38;;;1.10;;
61702;SDS011;47622;47.726;3.298;2024-02-23T12:44:16;3.13;;;1.42;;
61702;SDS011;47622;47.726;3.298;2024-02-23T12:46:41;2.47;;;0.88;;
61702;SDS011;47622;47.726;3.298;2024-02-23T12:49:07;3.80;;;0.98;;
61702;SDS011;47622;47.726;3.298;2024-02-23T12:51:32;2.78;;;0.90;;
61702;SDS011;47622;47.726;3.298;2024-02-23T12:53:59;1.85;;;0.90;;
61702;SDS011;47622;47.726;3.298;2024-02-23T12:56:26;2.25;;;0.77;;
61702;SDS011;47622;47.726;3.298;2024-02-23T12:58:51;3.22;;;0.98;;
61702;SDS011;47622;47.726;3.298;2024-02-23T13:01:19;2.65;;;0.85;;
61702;SDS011;47622;47.726;3.298;2024-02-23T13:03:45;2.13;;;0.60;;
61702;SDS011;47622;47.726;3.298;2024-02-23T13:06:10;2.10;;;0.95;;
61702;SDS011;47622;47.726;3.298;2024-02-23T13:08:36;2.80;;;0.90;;
61702;SDS011;47622;47.726;3.298;2024-02-23T13:11:04;1.95;;;0.70;;
61702;SDS011;47622;47.726;3.298;2024-02-23T13:13:29;2.15;;;0.90;;
61702;SDS011;47622;47.726;3.298;2024-02-23T13:15:55;2.72;;;0.95;;
61702;SDS011;47622;47.726;3.298;2024-02-23T13:18:21;4.00;;;0.93;;
61702;SDS011;47622;47.726;3.298;2024-02-23T13:20:47;3.80;;;0.80;;
61702;SDS011;47622;47.726;3.298;2024-02-23T13:23:13;0.70;;;0.70;;
61702;SDS011;47622;47.726;3.298;2024-02-23T13:25:40;0.77;;;0.70;;
61702;SDS011;47622;47.726;3.298;2024-02-23T13:28:07;2.45;;;1.15;;
61702;SDS011;47622;47.726;3.298;2024-02-23T13:30:33;2.95;;;0.80;;
61702;SDS011;47622;47.726;3.298;2024-02-23T13:33:00;2.92;;;1.23;;
61702;SDS011;47622;47.726;3.298;2024-02-23T13:35:27;1.52;;;0.75;;
61702;SDS011;47622;47.726;3.298;2024-02-23T13:37:53;2.75;;;0.82;;
61702;SDS011;47622;47.726;3.298;2024-02-23T13:40:19;3.13;;;0.70;;
61702;SDS011;47622;47.726;3.298;2024-02-23T13:42:44;2.22;;;0.90;;
61702;SDS011;47622;47.726;3.298;2024-02-23T13:45:18;4.15;;;0.95;;
61702;SDS011;47622;47.726;3.298;2024-02-23T13:47:57;1.80;;;0.80;;
61702;SDS011;47622;47.726;3.298;2024-02-23T13:50:23;1.50;;;0.93;;
61702;SDS011;47622;47.726;3.298;2024-02-23T13:52:49;1.45;;;0.95;;
61702;SDS011;47622;47.726;3.298;2024-02-23T13:55:15;0.98;;;0.88;;
61702;SDS011;47622;47.726;3.298;2024-02-23T13:57:41;1.40;;;0.88;;
61702;SDS011;47622;47.726;3.298;2024-02-23T14:00:06;2.65;;;0.90;;
61702;SDS011;47622;47.726;3.298;2024-02-23T14:02:37;2.53;;;0.88;;
61702;SDS011;47622;47.726;3.298;2024-02-23T14:05:05;1.65;;;0.85;;
61702;SDS011;47622;47.726;3.298;2024-02-23T14:07:32;4.18;;;1.05;;
61702;SDS011;47622;47.726;3.298;2024-02-23T14:09:58;1.17;;;0.80;;
61702;SDS011;47622;47.726;3.298;2024-02-23T14:12:24;1.48;;;0.70;;
61702;SDS011;47622;47.726;3.298;2024-02-23T14:14:50;1.88;;;0.80;;
61702;SDS011;47622;47.726;3.298;2024-02-23T14:17:16;1.85;;;0.80;;
61702;SDS011;47622;47.726;3.298;2024-02-23T14:19:42;1.92;;;0.98;;
61702;SDS011;47622;47.726;3.298;2024-02-23T14:22:07;2.00;;;0.80;;
61702;SDS011;47622;47.726;3.298;2024-02-23T14:24:33;2.15;;;0.90;;
61702;SDS011;47622;47.726;3.298;2024-02-23T14:26:58;1.15;;;1.00;;
61702;SDS011;47622;47.726;3.298;2024-02-23T14:29:24;2.30;;;1.63;;
61702;SDS011;47622;47.726;3.298;2024-02-23T14:31:49;0.80;;;0.80;;
61702;SDS011;47622;47.726;3.298;2024-02-23T14:34:15;1.00;;;0.75;;
61702;SDS011;47622;47.726;3.298;2024-02-23T14:36:41;1.73;;;0.88;;
61702;SDS011;47622;47.726;3.298;2024-02-23T14:39:09;1.60;;;0.80;;
61702;SDS011;47622;47.726;3.298;2024-02-23T14:41:35;1.58;;;0.77;;
61702;SDS011;47622;47.726;3.298;2024-02-23T14:44:01;0.98;;;0.80;;
61702;SDS011;47622;47.726;3.298;2024-02-23T14:46:26;1.50;;;0.70;;
61702;SDS011;47622;47.726;3.298;2024-02-23T14:48:52;0.80;;;0.70;;